Date,TemperatureHighF,TemperatureAvgF,TemperatureLowF,DewpointHighF,DewpointAvgF,DewpointLowF,HumidityHigh,HumidityAvg,HumidityLow,PressureMaxIn,PressureMinIn,WindSpeedMaxMPH,WindSpeedAvgMPH,GustSpeedMaxMPH,PrecipitationSumIn
2013-1-1,49,42,37,37,31,15,89,67,32,30.19,30.12,12,2,12,0.00
2013-1-2,59,50,43,35,25,17,54,38,26,30.17,30.07,5,0,6,0.00
2013-1-3,60,52,47,37,21,10,59,31,20,30.17,30.06,9,1,9,0.00
2013-1-4,61,51,42,40,29,13,91,46,23,30.18,30.10,5,0,5,0.00
2013-1-5,46,43,41,45,42,40,98,96,91,30.19,30.03,8,0,8,0.67
2013-1-6,41,40,39,41,39,37,99,96,87,30.14,29.99,14,2,14,0.08
2013-1-7,53,48,40,47,40,33,92,76,63,30.20,30.09,13,2,13,0.01
2013-1-8,63,54,48,49,42,35,81,66,47,30.14,30.06,12,2,12,0.00
2013-1-9,55,48,37,46,39,32,93,75,46,30.07,29.92,14,0,14,0.00
2013-1-10,42,37,34,34,31,28,94,79,59,30.13,30.00,16,2,16,0.01
2013-1-11,44,38,34,36,32,28,93,78,61,30.20,30.08,15,1,15,0.01
2013-1-12,44,37,33,33,27,20,88,67,40,30.17,30.08,13,2,13,0.00
2013-1-13,44,37,32,23,17,8,64,45,31,30.19,30.10,24,3,24,0.00
2013-1-14,46,38,32,20,12,5,46,33,25,30.34,30.13,17,2,17,0.00
2013-1-15,52,42,35,30,24,15,65,48,36,30.41,30.34,8,0,8,0.00
2013-1-16,59,49,40,37,30,24,58,47,35,30.35,30.18,5,0,5,0.00
2013-1-17,72,60,52,34,26,16,37,27,17,30.18,30.07,9,0,9,0.00
2013-1-18,71,61,56,33,22,11,31,22,15,30.12,30.05,3,0,3,0.00
2013-1-19,71,60,56,33,22,16,35,23,14,30.14,30.07,5,0,5,0.00
2013-1-20,71,61,56,38,22,6,41,23,12,30.13,30.03,5,0,5,0.00
2013-1-21,73,62,56,33,17,4,28,17,12,30.08,30.00,7,0,7,0.00
2013-1-22,74,61,56,37,19,3,35,20,10,30.03,29.94,6,0,6,0.00
2013-1-23,58,54,47,42,29,15,83,43,20,30.00,29.90,7,0,7,0.02
2013-1-24,53,51,47,52,47,41,97,88,67,30.12,29.97,7,0,7,0.00
2013-1-25,63,54,50,58,52,49,99,92,79,30.12,29.98,9,2,9,0.00
2013-1-26,52,47,38,50,43,35,96,86,59,30.01,29.92,14,2,14,0.00
2013-1-27,48,41,37,36,33,25,89,73,44,30.11,30.00,12,2,12,0.00
2013-1-28,48,42,36,40,35,32,94,79,60,30.24,30.10,12,2,12,0.00
2013-1-29,55,46,38,42,37,34,94,71,47,30.29,30.21,25,1,25,0.00
2013-1-30,62,55,49,46,37,24,66,51,33,30.28,30.20,29,2,29,0.00
2013-1-31,66,56,48,46,39,27,70,54,40,30.20,30.11,8,0,8,0.00
2013-2-1,71,58,52,47,38,31,74,48,33,30.15,30.06,5,0,5,0.00
2013-2-2,62,55,50,51,43,33,84,64,46,30.19,30.12,7,0,7,0.00
2013-2-3,55,47,38,48,42,33,98,83,48,30.16,30.07,10,1,10,0.00
2013-2-4,66,56,49,47,39,24,79,53,34,30.10,29.99,8,0,8,0.00
2013-2-5,49,45,39,43,40,31,96,84,61,30.08,29.96,11,1,11,0.00
2013-2-6,56,46,39,45,38,28,94,76,56,30.13,30.07,12,1,12,0.00
2013-2-7,49,41,35,44,36,31,96,82,58,30.12,29.94,8,1,8,0.01
2013-2-8,42,38,35,36,34,27,96,84,57,29.95,29.86,13,1,13,0.00
2013-2-9,52,43,38,37,29,22,71,58,33,30.05,29.94,9,1,9,0.00
2013-2-10,53,46,39,34,29,22,69,52,37,30.05,29.97,13,1,13,0.00
2013-2-11,55,48,41,32,26,21,60,43,27,30.18,30.01,10,1,10,0.00
2013-2-12,58,49,43,41,32,25,67,53,45,30.28,30.18,6,0,6,0.00
2013-2-13,61,52,46,42,35,30,61,53,39,30.26,30.15,8,1,8,0.00
2013-2-14,65,56,49,42,37,32,58,48,34,30.17,30.10,11,2,11,0.00
2013-2-15,73,63,57,41,33,27,47,33,24,30.19,30.13,8,1,8,0.00
2013-2-16,72,62,56,43,31,23,57,32,21,30.16,29.97,8,1,8,0.00
2013-2-17,59,52,45,47,39,26,82,62,31,29.97,29.90,9,0,9,0.00
2013-2-18,46,42,38,42,38,35,97,89,78,29.98,29.92,6,0,6,0.00
2013-2-19,40,36,32,39,34,31,97,93,84,29.93,29.71,12,1,12,0.01
2013-2-20,49,41,33,35,31,28,92,70,45,30.02,29.77,14,2,14,0.01
2013-2-21,49,42,36,35,31,27,92,66,49,30.13,29.98,18,2,18,0.00
2013-2-22,59,50,42,41,32,26,73,52,34,30.19,30.11,12,1,12,0.00
2013-2-23,50,44,40,41,35,27,94,70,51,30.17,30.09,15,2,15,0.00
2013-2-24,54,46,40,28,22,18,60,39,26,30.20,30.11,24,3,24,0.00
2013-2-25,61,50,43,42,32,20,74,50,37,30.21,30.11,10,1,10,0.00
2013-2-26,59,53,46,35,21,11,66,30,15,30.15,30.06,19,3,19,0.00
2013-2-27,68,58,51,40,26,13,64,31,19,30.28,30.14,13,2,13,0.00
2013-2-28,64,56,51,48,44,36,74,63,51,30.38,30.27,13,2,13,0.00
2013-3-1,71,61,54,51,47,40,77,61,47,30.36,30.18,11,2,11,0.00
2013-3-2,71,61,51,48,42,38,76,51,35,30.18,30.01,5,0,5,0.00
2013-3-3,62,52,42,49,45,41,96,78,53,30.03,29.99,5,0,5,0.00
2013-3-4,59,47,40,49,43,38,98,85,69,30.08,30.00,6,0,6,0.00
2013-3-5,51,43,38,43,39,37,97,89,67,30.01,29.87,7,0,7,0.24
2013-3-6,47,42,38,44,41,35,98,94,83,30.04,29.86,18,0,18,0.62
2013-3-7,52,43,37,41,37,32,97,83,56,29.96,29.81,6,0,6,0.26
2013-3-8,55,43,37,46,38,35,97,82,54,30.04,29.76,10,1,10,0.01
2013-3-9,40,38,37,38,36,34,95,93,89,30.13,30.04,8,0,8,0.00
2013-3-10,65,56,51,47,33,22,55,42,27,30.27,30.20,10,2,13,0.00
2013-3-11,70,60,51,43,34,26,50,39,21,30.20,30.06,7,0,7,0.00
2013-3-12,74,63,55,50,41,25,56,44,28,30.07,30.01,10,1,10,0.00
2013-3-13,81,67,59,51,45,38,60,45,26,30.08,30.01,6,0,6,0.00
2013-3-14,73,64,59,56,43,23,62,48,24,30.08,30.00,12,2,12,0.00
2013-3-15,72,62,56,50,35,9,55,39,14,30.05,29.98,9,2,9,0.00
2013-3-16,63,56,52,46,41,37,62,57,49,30.00,29.94,7,1,7,0.00
2013-3-17,66,55,48,44,35,18,72,49,17,30.06,29.98,11,2,14,0.00
2013-3-18,65,56,50,52,40,26,84,55,35,30.04,29.97,10,1,10,0.00
2013-3-19,70,58,50,48,41,24,92,55,33,30.09,29.98,8,1,8,0.01
2013-3-20,59,53,48,51,46,29,97,80,44,30.07,30.00,7,0,7,0.02
2013-3-21,58,49,39,48,38,30,97,69,37,30.06,29.96,13,2,13,0.00
2013-3-22,58,53,47,31,19,6,47,27,14,30.04,29.93,27,5,27,0.00
2013-3-23,66,55,49,35,22,15,41,28,19,30.06,29.96,22,3,22,0.00
2013-3-24,54,52,51,31,23,20,41,32,28,30.01,29.98,2,0,2,0.00
2013-3-25,66,55,46,49,44,36,84,66,50,29.94,29.88,3,0,6,0.00
2013-3-26,66,52,40,50,43,36,93,74,55,29.96,29.88,5,0,9,0.00
2013-3-27,60,52,46,51,47,43,97,86,71,29.98,29.88,5,0,5,0.00
2013-3-28,62,53,48,57,51,48,98,94,78,30.03,29.96,5,0,5,0.01
2013-3-29,72,58,50,55,50,46,94,76,47,30.04,29.99,5,0,8,0.00
2013-3-30,63,52,47,55,48,45,97,86,58,30.03,29.95,7,0,7,0.03
2013-3-31,59,51,47,53,49,47,98,92,72,30.03,29.96,6,0,6,0.14
2013-4-1,58,50,47,54,48,46,99,92,75,30.11,30.00,7,0,7,0.00
2013-4-2,64,54,44,55,48,41,98,81,57,30.13,30.05,8,1,8,0.00
2013-4-3,72,59,51,58,48,33,83,67,47,30.07,29.96,5,0,7,0.00
2013-4-4,54,50,45,52,48,39,98,94,59,30.08,29.94,5,0,5,0.02
2013-4-5,57,51,46,54,49,45,98,93,80,30.14,30.07,6,0,6,0.00
2013-4-6,60,52,45,54,48,40,97,86,64,30.16,30.09,7,1,9,0.00
2013-4-7,61,53,45,54,46,39,96,78,62,30.13,29.83,6,0,6,0.02
2013-4-8,56,47,39,45,36,30,97,67,38,29.96,29.74,21,3,23,0.01
2013-4-9,63,55,47,37,32,27,67,43,27,30.04,29.94,20,4,24,0.00
2013-4-10,76,66,57,47,39,27,66,37,25,30.11,29.99,23,5,23,0.00
2013-4-11,64,56,46,50,44,36,89,64,39,29.99,29.81,14,1,14,0.00
2013-4-12,72,60,50,56,45,34,82,58,37,29.86,29.80,8,1,8,0.00
2013-4-13,68,55,46,54,45,37,80,68,53,29.83,29.78,6,0,6,0.00
2013-4-14,67,53,43,45,36,24,88,55,25,29.86,29.79,18,2,18,0.00
2013-4-15,55,45,38,44,37,30,95,75,49,29.88,29.79,14,1,14,0.00
2013-4-16,56,47,38,34,30,25,85,53,31,30.08,29.88,16,3,20,0.00
2013-4-17,58,51,43,31,27,20,56,40,26,30.18,30.08,20,4,20,0.00
2013-4-18,68,58,50,37,28,20,46,31,21,30.20,30.15,15,2,15,0.00
2013-4-19,77,65,55,50,41,30,51,42,34,30.17,30.01,16,1,16,0.00
2013-4-20,76,64,56,48,39,33,61,41,24,30.02,29.94,18,3,18,0.00
2013-4-21,81,70,61,46,36,27,45,29,20,29.97,29.90,11,2,11,0.00
2013-4-22,81,70,64,54,43,29,55,37,24,29.91,29.79,23,2,23,0.00
2013-4-23,73,63,52,54,40,22,85,46,22,29.85,29.76,19,2,19,0.00
2013-4-24,59,52,48,49,40,22,93,67,25,29.92,29.76,5,0,5,0.00
2013-4-25,66,54,46,51,47,44,92,78,55,30.07,29.92,7,0,7,0.00
2013-4-26,72,58,48,56,47,26,90,68,26,30.16,30.06,5,0,5,0.00
2013-4-27,80,67,56,58,43,20,55,43,15,30.15,30.01,10,1,10,0.00
2013-4-28,81,70,60,58,45,26,57,41,24,30.01,29.84,8,1,8,0.00
2013-4-29,85,74,66,51,43,36,58,33,22,29.84,29.70,18,3,18,0.00
2013-4-30,75,67,60,47,35,14,60,32,14,29.78,29.67,22,3,22,0.00
2013-5-1,76,67,60,52,34,14,61,33,15,30.02,29.78,18,2,18,0.00
2013-5-2,89,75,67,46,36,23,36,25,17,30.09,30.02,11,1,11,0.00
2013-5-3,86,75,67,45,32,18,32,21,14,30.02,29.75,8,1,8,0.00
2013-5-4,79,64,46,54,42,27,94,51,21,29.75,29.55,7,0,7,0.00
2013-5-5,60,51,46,50,47,44,97,85,59,29.76,29.55,8,0,8,0.00
2013-5-6,63,53,48,52,48,45,93,82,63,29.93,29.76,6,0,6,0.00
2013-5-7,68,56,50,51,47,43,88,74,47,30.00,29.91,5,0,5,0.00
2013-5-8,68,55,48,52,46,42,94,73,54,30.08,29.98,9,1,9,0.00
2013-5-9,70,56,44,54,48,42,96,77,55,30.11,30.02,9,0,9,0.00
2013-5-10,78,63,50,58,51,43,87,65,48,30.11,30.04,9,1,9,0.00
2013-5-11,87,74,63,57,48,33,61,40,26,30.10,30.00,7,0,7,0.00
2013-5-12,83,72,65,59,51,42,67,48,27,30.05,29.96,10,1,10,0.00
2013-5-13,81,69,60,58,50,27,74,52,23,30.01,29.89,8,1,8,0.00
2013-5-14,70,57,47,55,50,45,97,77,48,29.97,29.85,6,0,6,0.00
2013-5-15,71,56,44,51,45,40,94,71,40,30.02,29.95,7,0,7,0.00
2013-5-16,67,55,48,54,48,41,89,76,60,29.98,29.93,9,0,9,0.00
2013-5-17,68,54,44,51,44,37,89,69,47,30.02,29.91,10,1,10,0.00
2013-5-18,71,56,43,52,45,39,94,69,34,30.07,30.01,14,1,14,0.00
2013-5-19,75,64,51,42,39,31,66,41,22,30.06,29.94,19,3,19,0.00
2013-5-20,82,72,64,40,31,6,39,23,9,29.95,29.87,18,2,21,0.00
2013-5-21,74,61,44,51,35,4,70,42,9,29.91,29.82,9,1,9,0.00
2013-5-22,60,49,42,36,30,18,74,50,20,29.92,29.85,15,2,15,0.00
2013-5-23,66,50,39,44,39,30,89,66,43,29.96,29.87,6,0,6,0.00
2013-5-24,70,55,45,48,37,26,77,53,26,29.95,29.91,5,0,5,0.00
2013-5-25,69,52,40,48,42,37,94,70,42,30.02,29.91,7,0,7,0.00
2013-5-26,67,55,47,51,47,42,93,75,53,30.08,30.01,11,1,11,0.00
2013-5-27,59,53,46,54,48,41,93,84,75,30.08,29.98,11,1,12,0.00
2013-5-28,69,58,51,55,51,46,97,79,55,29.98,29.87,10,1,10,0.01
2013-5-29,70,59,51,54,44,30,87,60,37,29.91,29.87,9,1,9,0.00
2013-5-30,74,60,48,53,41,18,77,51,21,29.94,29.86,9,0,9,0.00
2013-5-31,80,70,59,44,37,23,43,30,19,29.95,29.88,15,2,15,0.00
2013-6-1,91,78,70,54,41,34,35,27,18,29.89,29.72,11,2,11,0.00
2013-6-2,77,65,49,57,49,40,90,58,31,29.71,29.65,5,0,5,0.00
2013-6-3,66,53,46,54,48,44,97,84,62,29.83,29.67,4,0,4,0.00
2013-6-4,65,55,49,54,50,46,95,85,67,29.93,29.81,5,0,5,0.00
2013-6-5,70,57,50,56,51,48,94,80,59,29.94,29.89,5,0,5,0.00
2013-6-6,75,61,50,57,52,43,90,73,53,29.90,29.84,5,0,5,0.00
2013-6-7,91,75,58,64,54,26,82,52,13,29.84,29.73,7,0,7,0.00
2013-6-8,89,74,58,61,47,24,82,47,12,29.76,29.65,8,0,8,0.00
2013-6-9,67,56,51,56,52,48,95,84,66,29.85,29.74,5,0,5,0.00
2013-6-10,62,54,50,53,50,48,95,86,69,29.92,29.81,4,0,4,0.00
2013-6-11,74,60,49,58,53,47,98,78,50,29.93,29.86,7,0,7,0.00
2013-6-12,78,65,53,58,47,34,76,55,30,29.94,29.85,5,0,5,0.00
2013-6-13,76,62,48,52,39,17,83,47,15,30.02,29.93,9,1,10,0.00
2013-6-14,82,70,62,51,40,33,49,34,20,29.94,29.79,13,1,13,0.00
2013-6-15,71,61,55,54,46,35,79,59,34,29.94,29.75,6,0,6,0.00
2013-6-16,81,68,59,54,42,30,59,40,27,30.02,29.94,12,2,12,0.00
2013-6-17,75,64,54,54,48,41,86,57,41,30.02,29.97,10,1,11,0.00
2013-6-18,67,56,50,50,44,38,92,67,41,29.98,29.94,16,2,16,0.00
2013-6-19,70,58,49,46,41,34,75,55,39,29.99,29.93,23,3,23,0.00
2013-6-20,77,62,50,51,43,33,71,51,25,29.96,29.90,12,1,12,0.00
2013-6-21,80,66,52,53,44,26,66,45,21,29.92,29.87,8,1,8,0.00
2013-6-22,84,72,59,56,43,26,67,37,22,29.87,29.80,9,1,9,0.00
2013-6-23,63,58,52,57,54,47,96,84,62,29.82,29.77,5,0,5,0.00
2013-6-24,59,57,55,58,56,54,98,98,96,29.89,29.75,2,0,2,0.06
2013-6-25,63,58,54,63,58,54,99,99,98,29.99,29.89,3,0,3,0.10
2013-6-26,82,68,58,69,61,58,99,83,55,30.01,29.93,7,0,7,0.00
2013-6-27,87,75,63,63,56,44,86,54,32,30.01,29.96,9,1,9,0.00
2013-6-28,95,84,74,63,52,37,47,34,19,29.99,29.87,14,2,14,0.00
2013-6-29,98,86,80,60,49,40,43,27,21,29.87,29.77,11,2,11,0.00
2013-6-30,94,82,75,63,50,26,46,33,13,29.79,29.72,8,1,8,0.00
2013-7-1,86,81,73,61,51,30,50,37,15,29.81,29.74,8,1,8,0.00
2013-7-2,88,76,70,60,54,49,56,47,36,29.89,29.77,3,0,3,0.00
2013-7-3,89,78,68,63,55,46,55,45,31,29.86,29.72,6,0,6,0.00
2013-7-4,90,80,71,63,58,44,60,46,30,29.72,29.65,19,1,19,0.00
2013-7-5,74,63,52,57,52,42,92,69,42,29.73,29.66,5,0,6,0.00
2013-7-6,70,56,47,56,50,44,98,83,57,29.77,29.71,5,0,5,0.00
2013-7-7,76,63,52,57,45,19,77,55,18,29.81,29.74,5,0,5,0.00
2013-7-8,82,70,61,56,36,20,58,30,15,29.91,29.80,4,0,4,0.00
2013-7-9,95,78,66,58,48,23,51,36,19,29.96,29.89,7,0,7,0.00
2013-7-10,85,73,64,59,47,21,60,41,13,29.90,29.84,5,0,5,0.00
2013-7-11,74,64,57,56,44,21,78,51,18,29.88,29.82,4,0,5,0.00
2013-7-12,80,67,59,57,50,41,70,54,37,29.89,29.84,6,0,6,0.00
2013-7-13,84,70,61,57,50,29,64,50,27,29.91,29.83,5,0,5,0.00
2013-7-14,82,70,62,58,50,40,66,51,39,29.92,29.84,5,0,5,0.00
2013-7-15,71,59,48,55,48,29,95,69,36,29.84,29.79,5,0,5,0.00
2013-7-16,70,56,49,57,52,48,98,85,58,29.98,29.82,6,0,6,0.02
2013-7-17,79,63,51,60,53,29,95,73,25,30.03,29.96,5,0,5,0.00
2013-7-18,85,72,63,59,47,26,61,42,22,30.00,29.89,7,0,7,0.00
2013-7-19,82,72,65,59,50,29,64,48,25,29.89,29.78,5,0,5,0.00
2013-7-20,79,69,62,59,52,41,68,53,39,29.80,29.71,5,0,5,0.00
2013-7-21,80,69,63,58,51,39,79,54,36,29.84,29.71,5,0,5,0.00
2013-7-22,79,68,59,60,51,32,89,58,22,29.92,29.82,5,0,5,0.00
2013-7-23,78,70,65,60,51,30,68,52,24,29.95,29.90,7,0,7,0.00
2013-7-24,86,74,66,62,54,33,64,50,28,29.92,29.86,7,1,8,0.00
2013-7-25,84,74,66,60,54,40,61,51,30,29.95,29.85,9,0,9,0.00
2013-7-26,83,72,65,60,53,41,71,52,32,30.01,29.93,5,0,5,0.00
2013-7-27,81,71,61,60,50,32,74,49,29,29.95,29.82,5,0,5,0.00
2013-7-28,72,63,50,56,49,36,93,60,33,29.81,29.75,5,0,5,0.00
2013-7-29,71,56,48,56,50,42,96,82,57,29.98,29.80,5,0,5,0.00
2013-7-30,74,62,54,56,49,41,82,62,51,30.05,29.97,4,0,4,0.00
2013-7-31,75,63,55,56,48,34,79,58,36,30.03,29.98,8,1,8,0.00
2013-8-1,77,63,53,56,48,28,82,60,31,30.01,29.92,4,0,4,0.00
2013-8-2,78,65,55,58,50,26,76,59,26,29.92,29.87,5,0,5,0.00
2013-8-3,70,60,50,55,48,30,86,65,35,29.92,29.85,5,0,5,0.00
2013-8-4,72,61,52,57,52,46,88,72,57,29.94,29.90,6,0,6,0.00
2013-8-5,79,64,56,58,52,40,83,65,46,29.95,29.89,5,0,5,0.00
2013-8-6,71,59,51,56,50,40,94,74,51,29.99,29.88,5,0,5,0.00
2013-8-7,71,58,49,55,52,48,98,82,56,30.05,29.97,6,0,6,0.00
2013-8-8,73,59,51,57,53,49,96,81,54,29.99,29.89,7,0,7,0.00
2013-8-9,72,59,49,57,53,47,97,82,58,29.95,29.85,6,0,6,0.00
2013-8-10,78,64,53,61,55,50,91,73,52,29.99,29.92,8,0,8,0.00
2013-8-11,80,66,57,61,55,46,84,68,49,29.95,29.90,7,0,7,0.00
2013-8-12,82,69,59,59,52,38,75,56,28,29.93,29.88,7,0,7,0.00
2013-8-13,88,73,63,57,47,36,57,41,22,29.91,29.86,8,0,8,0.00
2013-8-14,86,72,63,57,50,40,63,47,32,29.90,29.85,10,1,10,0.00
2013-8-15,89,74,63,63,57,49,79,57,36,29.89,29.85,7,1,7,0.00
2013-8-16,88,75,66,64,58,51,76,58,42,29.91,29.87,8,1,8,0.00
2013-8-17,82,71,66,60,50,22,75,50,19,29.92,29.83,9,1,9,0.00
2013-8-18,92,78,65,60,52,34,67,43,27,29.83,29.75,7,1,7,0.00
2013-8-19,90,75,63,60,54,46,73,48,35,29.83,29.75,5,0,5,0.00
2013-8-20,79,67,56,57,51,38,73,57,40,29.84,29.77,5,0,5,0.00
2013-8-21,78,63,52,56,49,40,87,62,40,29.88,29.81,5,0,5,0.00
2013-8-22,76,61,52,57,52,48,94,74,51,29.91,29.84,6,0,6,0.00
2013-8-23,80,65,54,59,54,46,89,69,48,29.87,29.77,6,0,6,0.00
2013-8-24,82,67,59,58,53,38,87,61,37,29.83,29.78,9,1,9,0.00
2013-8-25,82,66,56,60,56,52,89,71,43,29.88,29.82,5,0,5,0.00
2013-8-26,79,65,54,60,54,46,93,69,49,29.93,29.85,10,1,10,0.00
2013-8-27,85,69,62,58,52,43,76,56,36,29.86,29.77,8,1,8,0.00
2013-8-28,85,69,59,60,54,46,82,61,40,29.88,29.77,7,0,7,0.00
2013-8-29,84,70,60,62,57,47,87,66,46,29.97,29.88,11,2,11,0.00
2013-8-30,91,77,67,60,54,47,63,47,27,29.97,29.86,10,2,10,0.00
2013-8-31,90,75,67,58,51,42,59,44,25,29.89,29.83,5,0,5,0.00
2013-9-1,85,71,64,65,54,43,77,55,43,29.86,29.82,7,1,7,0.00
2013-9-2,78,68,60,62,57,52,92,70,53,29.89,29.83,9,2,9,0.00
2013-9-3,81,66,58,58,52,45,93,62,37,29.94,29.86,9,2,9,0.01
2013-9-4,78,65,58,55,51,44,84,62,43,29.97,29.90,11,2,11,0.00
2013-9-5,78,64,53,58,50,38,88,64,40,29.96,29.89,10,2,10,0.00
2013-9-6,90,73,59,53,46,31,62,39,26,29.93,29.79,9,1,9,0.00
2013-9-7,91,77,71,54,46,38,46,34,27,29.81,29.76,6,0,6,0.00
2013-9-8,88,77,69,60,51,43,47,40,31,29.79,29.71,10,0,10,0.00
2013-9-9,90,80,73,57,48,26,49,34,14,29.73,29.66,9,1,9,0.00
2013-9-10,79,63,53,56,48,22,93,64,12,29.84,29.66,5,0,6,0.00
2013-9-11,70,59,52,57,54,51,95,85,62,29.96,29.84,5,0,5,0.00
2013-9-12,79,64,54,62,57,52,98,79,53,29.92,29.85,6,0,6,0.00
2013-9-13,82,70,56,61,49,31,87,52,21,29.85,29.72,9,1,11,0.00
2013-9-14,80,69,61,58,48,22,74,49,18,29.73,29.68,8,1,8,0.00
2013-9-15,77,65,55,56,52,45,82,65,46,29.79,29.70,9,2,9,0.00
2013-9-16,80,67,57,59,54,46,79,64,47,29.82,29.75,10,1,10,0.00
2013-9-17,71,60,51,54,49,43,92,70,42,29.83,29.77,11,1,11,0.00
2013-9-18,77,66,58,49,43,36,70,45,25,29.84,29.78,13,3,13,0.00
2013-9-19,88,74,64,46,39,32,41,29,18,29.79,29.70,9,1,9,0.00
2013-9-20,76,64,57,57,48,33,92,58,29,29.81,29.68,5,0,5,0.00
2013-9-21,57,54,50,56,53,48,98,96,91,29.86,29.76,4,0,4,0.38
2013-9-22,67,56,50,56,48,43,94,76,47,29.95,29.86,11,2,11,0.00
2013-9-23,77,65,56,56,50,46,73,59,42,29.96,29.89,10,2,10,0.00
2013-9-24,69,62,53,55,49,41,76,63,43,29.92,29.86,16,2,16,0.00
2013-9-25,63,54,50,43,41,38,76,62,44,29.87,29.76,15,2,15,0.00
2013-9-26,64,56,47,43,37,30,81,52,28,29.93,29.76,14,1,14,0.00
2013-9-27,69,61,55,36,33,28,43,35,23,30.03,29.93,17,3,17,0.00
2013-9-28,80,67,58,41,36,28,42,32,22,30.02,29.95,9,1,9,0.00
2013-9-29,79,66,58,55,46,34,88,51,35,30.02,29.97,7,1,7,0.00
2013-9-30,73,62,56,58,55,52,90,77,56,30.01,29.91,11,2,11,0.00
2013-10-1,69,59,51,53,49,39,94,72,52,29.94,29.88,9,1,9,0.00
2013-10-2,74,62,56,52,44,29,72,52,32,29.94,29.86,6,1,6,0.00
2013-10-3,63,58,53,40,31,24,57,36,25,29.95,29.86,21,4,21,0.00
2013-10-4,72,63,55,32,28,23,32,26,21,30.04,29.87,18,5,18,0.00
2013-10-5,84,71,63,32,25,20,24,18,11,30.12,30.04,9,1,10,0.00
2013-10-6,86,73,67,30,24,15,22,16,9,30.04,29.92,7,0,7,0.00
2013-10-7,80,70,62,39,30,21,30,23,16,29.92,29.82,7,1,7,0.00
2013-10-8,70,60,46,50,39,16,92,51,16,29.83,29.64,7,0,7,0.00
2013-10-9,60,51,44,48,44,37,96,78,48,29.73,29.55,7,0,7,0.00
2013-10-10,62,54,48,49,42,35,86,65,45,29.94,29.72,8,0,8,0.00
2013-10-11,68,56,47,50,44,37,82,64,43,30.00,29.93,7,0,7,0.00
2013-10-12,71,59,49,48,43,35,80,57,32,29.94,29.86,4,0,4,0.00
2013-10-13,66,57,49,48,42,36,80,58,38,30.00,29.84,12,3,13,0.00
2013-10-14,74,64,57,41,36,27,45,36,27,30.03,29.94,10,3,10,0.00
2013-10-15,77,66,58,35,31,27,36,28,16,29.96,29.89,10,4,10,0.00
2013-10-16,82,69,62,38,31,24,31,24,17,30.00,29.93,7,1,7,0.00
2013-10-17,82,69,64,38,32,24,31,25,19,29.99,29.90,8,1,9,0.00
2013-10-18,83,70,62,40,32,25,37,25,16,29.96,29.90,5,0,5,0.00
2013-10-19,84,72,64,43,34,28,35,26,19,29.98,29.94,5,0,5,0.00
2013-10-20,82,71,64,46,35,27,34,27,22,29.94,29.84,7,1,7,0.00
2013-10-21,79,68,62,48,38,25,51,34,18,29.90,29.84,5,0,5,0.00
2013-10-22,81,70,64,51,41,26,50,37,20,29.91,29.85,3,0,3,0.00
2013-10-23,80,68,61,53,42,27,53,39,21,29.86,29.82,5,0,5,0.00
2013-10-24,66,58,49,50,41,26,85,55,28,30.02,29.85,8,0,8,0.00
2013-10-25,76,64,49,52,42,29,71,46,27,30.09,30.02,6,0,6,0.00
2013-10-26,81,68,61,48,38,23,48,34,21,30.05,29.95,9,0,9,0.00
2013-10-27,68,58,46,49,41,27,93,58,26,29.95,29.65,10,0,10,0.00
2013-10-28,56,48,45,46,43,41,95,85,59,29.82,29.61,11,0,11,0.01
2013-10-29,54,48,44,48,45,42,96,90,77,29.99,29.82,5,0,5,0.00
2013-10-30,63,53,45,47,43,40,92,71,54,30.08,29.99,10,1,10,0.00
2013-10-31,68,58,50,45,41,38,72,56,38,30.10,30.02,7,1,7,0.00
2013-11-1,77,64,55,40,34,24,54,35,21,30.05,29.96,7,0,7,0.00
2013-11-2,74,63,53,48,35,23,69,38,22,29.95,29.83,11,1,13,0.00
2013-11-3,56,52,46,42,26,16,73,38,25,29.93,29.83,26,4,26,0.04
2013-11-4,57,52,45,34,26,23,65,38,27,29.98,29.82,19,4,19,0.00
2013-11-5,66,58,53,32,27,22,39,30,23,30.16,29.97,22,4,22,0.00
2013-11-6,75,63,57,37,31,24,44,31,21,30.17,30.09,6,0,6,0.00
2013-11-7,73,64,59,41,30,20,48,28,16,30.09,30.00,9,1,9,0.00
2013-11-8,76,63,57,45,41,33,57,44,28,30.00,29.88,10,1,10,0.00
2013-11-9,70,60,47,47,38,26,86,46,29,29.97,29.89,5,0,5,0.00
2013-11-10,68,57,47,48,38,17,92,52,20,30.04,29.95,3,0,5,0.00
2013-11-11,69,60,49,44,36,29,74,41,28,30.10,30.00,6,0,6,0.00
2013-11-12,73,62,53,46,39,30,69,43,29,30.18,30.07,9,2,9,0.00
2013-11-13,73,65,60,45,39,30,56,39,26,30.17,30.03,9,3,12,0.00
2013-11-14,73,63,53,50,43,33,63,48,33,30.03,29.79,12,1,12,0.00
2013-11-15,61,52,45,44,38,32,72,59,38,29.79,29.67,9,1,9,0.00
2013-11-16,59,49,41,44,41,34,91,74,54,29.88,29.71,5,0,5,0.00
2013-11-17,58,50,44,48,44,40,94,82,63,30.02,29.87,5,0,5,0.00
2013-11-18,58,48,44,46,42,37,92,79,61,30.07,30.02,5,0,5,0.00
2013-11-19,57,50,44,50,47,41,97,90,76,30.05,29.93,3,0,3,0.42
2013-11-20,53,51,46,53,50,45,98,97,95,29.92,29.80,9,0,9,0.67
2013-11-21,50,47,44,46,36,24,98,69,38,29.87,29.82,21,5,21,0.05
2013-11-22,56,50,44,26,21,12,42,32,21,29.93,29.85,22,5,22,0.00
2013-11-23,61,51,47,46,35,21,86,56,34,30.05,29.89,5,0,5,0.00
2013-11-24,62,52,46,42,37,23,67,58,37,30.18,30.04,5,0,5,0.00
2013-11-25,64,55,48,41,36,31,64,51,41,30.25,30.17,6,1,6,0.00
2013-11-26,68,58,52,44,37,33,55,47,30,30.18,29.96,5,0,5,0.00
2013-11-27,66,57,52,43,39,36,62,51,39,29.95,29.78,7,0,7,0.00
2013-11-28,66,57,51,42,37,34,60,48,35,30.01,29.78,9,1,9,0.00
2013-11-29,70,60,54,41,35,29,49,40,31,30.14,30.01,5,1,5,0.00
2013-11-30,66,58,53,40,34,26,52,40,32,30.18,30.12,8,1,8,0.00
2013-12-1,70,61,55,42,37,34,50,41,30,30.25,30.14,11,2,11,0.00
2013-12-2,73,59,49,48,39,13,90,52,14,30.16,29.89,10,1,10,0.00
2013-12-3,50,44,39,47,35,16,96,72,37,29.89,29.76,14,1,14,0.01
2013-12-4,45,39,33,28,21,14,70,48,31,30.00,29.85,13,2,13,0.00
2013-12-5,47,38,32,28,18,10,75,46,30,30.11,29.99,11,1,11,0.00
2013-12-6,48,40,33,43,33,24,97,78,54,30.13,29.90,9,0,9,0.74
2013-12-7,44,36,30,43,29,24,97,75,54,30.16,29.87,9,1,13,0.44
2013-12-8,41,33,30,27,22,12,79,65,45,30.22,30.14,10,2,10,0.00
2013-12-9,48,39,31,21,15,9,48,38,28,30.34,30.22,13,2,13,0.00
2013-12-10,57,48,42,28,15,3,43,27,18,30.33,30.11,5,0,5,0.00
2013-12-11,62,53,47,29,21,15,38,28,20,30.13,30.08,5,0,5,0.00
2013-12-12,62,53,45,25,18,13,36,25,17,30.16,30.09,7,0,7,0.00
2013-12-13,60,50,45,37,27,18,50,40,33,30.25,30.12,7,1,7,0.00
2013-12-14,64,55,47,38,30,21,54,39,25,30.28,30.22,8,1,8,0.00
2013-12-15,71,62,56,37,24,13,37,24,14,30.27,30.14,7,1,7,0.00
2013-12-16,76,67,62,34,20,12,23,16,13,30.13,30.03,6,1,6,0.00
2013-12-17,78,68,63,35,26,16,30,21,15,30.07,29.92,3,0,3,0.00
2013-12-18,66,55,42,47,37,22,93,57,19,29.92,29.70,7,0,7,0.00
2013-12-19,48,44,39,40,31,18,90,62,35,29.85,29.64,20,3,22,0.00
2013-12-20,55,48,40,28,11,-2,38,24,11,29.95,29.82,22,3,22,0.00
2013-12-21,62,55,48,45,36,21,77,50,30,29.99,29.90,15,3,15,0.00
2013-12-22,64,56,51,42,35,31,53,46,36,30.21,29.99,12,1,12,0.00
2013-12-23,68,57,50,41,36,30,57,46,36,30.30,30.21,6,0,6,0.00
2013-12-24,68,60,54,41,31,18,43,33,21,30.25,30.12,11,2,11,0.00
2013-12-25,74,63,56,37,28,21,35,26,20,30.18,30.11,11,1,11,0.00
2013-12-26,77,66,60,34,25,13,28,21,15,30.15,30.08,3,0,6,0.00
2013-12-27,73,65,56,40,22,9,42,20,13,30.13,30.02,11,1,11,0.00
2013-12-28,63,58,55,27,20,8,34,23,11,30.01,29.93,20,3,20,0.00
2013-12-29,68,58,52,27,20,11,31,23,18,30.09,29.98,12,1,12,0.00
2013-12-30,67,57,52,31,22,12,33,25,20,30.17,30.09,5,0,5,0.00
2013-12-31,67,58,53,38,22,9,52,26,16,30.17,30.06,7,0,8,0.00
2014-1-1,70,60,53,34,23,8,37,25,14,30.12,30.04,7,1,7,0.00
2014-1-2,74,64,58,37,32,25,36,30,23,30.07,29.96,6,0,6,0.00